sensor_id;sensor_type;location;lat;lon;timestamp;P1;durP1;ratioP1;P2;durP2;ratioP2
3433;SDS011;1730;41.932;25.548;2022-10-12T00:01:08;4.20;;;3.57;;
3433;SDS011;1730;41.932;25.548;2022-10-12T00:03:34;4.10;;;3.43;;
3433;SDS011;1730;41.932;25.548;2022-10-12T00:06:04;3.43;;;3.13;;
3433;SDS011;1730;41.932;25.548;2022-10-12T00:08:35;9.50;;;3.83;;
3433;SDS011;1730;41.932;25.548;2022-10-12T00:11:03;3.40;;;3.10;;
3433;SDS011;1730;41.932;25.548;2022-10-12T00:13:29;4.03;;;3.33;;
3433;SDS011;1730;41.932;25.548;2022-10-12T00:15:55;5.10;;;4.07;;
3433;SDS011;1730;41.932;25.548;2022-10-12T00:18:21;4.03;;;3.73;;
3433;SDS011;1730;41.932;25.548;2022-10-12T00:20:47;5.30;;;3.77;;
3433;SDS011;1730;41.932;25.548;2022-10-12T00:23:12;13.13;;;3.80;;
3433;SDS011;1730;41.932;25.548;2022-10-12T00:25:39;7.80;;;3.97;;
3433;SDS011;1730;41.932;25.548;2022-10-12T00:28:06;7.00;;;3.30;;
3433;SDS011;1730;41.932;25.548;2022-10-12T00:30:33;9.00;;;3.47;;
3433;SDS011;1730;41.932;25.548;2022-10-12T00:32:59;3.53;;;3.20;;
3433;SDS011;1730;41.932;25.548;2022-10-12T00:35:28;3.90;;;3.60;;
3433;SDS011;1730;41.932;25.548;2022-10-12T00:37:54;6.07;;;3.40;;
3433;SDS011;1730;41.932;25.548;2022-10-12T00:40:20;3.87;;;3.00;;
3433;SDS011;1730;41.932;25.548;2022-10-12T00:42:46;10.23;;;3.83;;
3433;SDS011;1730;41.932;25.548;2022-10-12T00:45:13;4.73;;;4.20;;
3433;SDS011;1730;41.932;25.548;2022-10-12T00:47:40;8.70;;;3.63;;
3433;SDS011;1730;41.932;25.548;2022-10-12T00:50:22;3.50;;;3.20;;
3433;SDS011;1730;41.932;25.548;2022-10-12T00:53:01;6.13;;;3.70;;
3433;SDS011;1730;41.932;25.548;2022-10-12T00:55:32;6.43;;;3.47;;
3433;SDS011;1730;41.932;25.548;2022-10-12T00:58:02;3.10;;;2.87;;
3433;SDS011;1730;41.932;25.548;2022-10-12T01:00:29;4.40;;;3.10;;
3433;SDS011;1730;41.932;25.548;2022-10-12T01:02:55;4.33;;;3.27;;
3433;SDS011;1730;41.932;25.548;2022-10-12T01:05:22;2.60;;;2.40;;
3433;SDS011;1730;41.932;25.548;2022-10-12T01:07:48;3.50;;;3.07;;
3433;SDS011;1730;41.932;25.548;2022-10-12T01:10:14;7.83;;;3.17;;
3433;SDS011;1730;41.932;25.548;2022-10-12T01:12:42;3.30;;;2.67;;
3433;SDS011;1730;41.932;25.548;2022-10-12T01:15:11;2.73;;;2.53;;
3433;SDS011;1730;41.932;25.548;2022-10-12T01:17:51;5.70;;;3.37;;
3433;SDS011;1730;41.932;25.548;2022-10-12T01:23:42;3.03;;;2.80;;
3433;SDS011;1730;41.932;25.548;2022-10-12T01:26:49;3.67;;;3.37;;
3433;SDS011;1730;41.932;25.548;2022-10-12T01:32:14;6.40;;;3.10;;
3433;SDS011;1730;41.932;25.548;2022-10-12T01:34:47;3.10;;;2.60;;
3433;SDS011;1730;41.932;25.548;2022-10-12T01:40:07;5.00;;;2.90;;
3433;SDS011;1730;41.932;25.548;2022-10-12T01:42:38;3.00;;;2.80;;
3433;SDS011;1730;41.932;25.548;2022-10-12T01:45:07;3.83;;;3.10;;
3433;SDS011;1730;41.932;25.548;2022-10-12T01:47:35;3.37;;;2.60;;
3433;SDS011;1730;41.932;25.548;2022-10-12T01:50:04;4.27;;;2.97;;
3433;SDS011;1730;41.932;25.548;2022-10-12T01:58:09;4.60;;;2.40;;
3433;SDS011;1730;41.932;25.548;2022-10-12T02:00:44;2.60;;;2.40;;
3433;SDS011;1730;41.932;25.548;2022-10-12T02:03:21;3.27;;;2.63;;
3433;SDS011;1730;41.932;25.548;2022-10-12T02:06:17;5.60;;;2.43;;
3433;SDS011;1730;41.932;25.548;2022-10-12T02:11:18;3.70;;;2.50;;
3433;SDS011;1730;41.932;25.548;2022-10-12T02:13:49;2.97;;;2.50;;
3433;SDS011;1730;41.932;25.548;2022-10-12T02:16:19;2.93;;;2.47;;
3433;SDS011;1730;41.932;25.548;2022-10-12T02:18:50;2.90;;;2.40;;
3433;SDS011;1730;41.932;25.548;2022-10-12T02:21:19;5.20;;;2.60;;
3433;SDS011;1730;41.932;25.548;2022-10-12T02:23:49;3.30;;;2.70;;
3433;SDS011;1730;41.932;25.548;2022-10-12T02:26:19;8.13;;;2.47;;
3433;SDS011;1730;41.932;25.548;2022-10-12T02:28:46;9.60;;;3.60;;
3433;SDS011;1730;41.932;25.548;2022-10-12T02:34:01;5.53;;;2.43;;
3433;SDS011;1730;41.932;25.548;2022-10-12T02:36:47;7.93;;;2.50;;
3433;SDS011;1730;41.932;25.548;2022-10-12T02:39:22;3.00;;;2.43;;
3433;SDS011;1730;41.932;25.548;2022-10-12T02:41:54;3.03;;;2.63;;
3433;SDS011;1730;41.932;25.548;2022-10-12T02:44:25;7.20;;;2.80;;
3433;SDS011;1730;41.932;25.548;2022-10-12T02:46:57;6.07;;;2.80;;
3433;SDS011;1730;41.932;25.548;2022-10-12T02:49:28;2.57;;;2.37;;
3433;SDS011;1730;41.932;25.548;2022-10-12T02:51:56;5.80;;;2.83;;
3433;SDS011;1730;41.932;25.548;2022-10-12T02:54:22;14.63;;;3.33;;
3433;SDS011;1730;41.932;25.548;2022-10-12T02:56:48;9.80;;;3.10;;
3433;SDS011;1730;41.932;25.548;2022-10-12T02:59:14;3.87;;;3.20;;
3433;SDS011;1730;41.932;25.548;2022-10-12T03:01:42;5.10;;;2.90;;
3433;SDS011;1730;41.932;25.548;2022-10-12T03:04:08;8.70;;;2.90;;
3433;SDS011;1730;41.932;25.548;2022-10-12T03:06:37;5.90;;;3.20;;
3433;SDS011;1730;41.932;25.548;2022-10-12T03:09:02;2.77;;;2.47;;
3433;SDS011;1730;41.932;25.548;2022-10-12T03:11:29;9.57;;;3.73;;
3433;SDS011;1730;41.932;25.548;2022-10-12T03:13:56;6.17;;;3.30;;
3433;SDS011;1730;41.932;25.548;2022-10-12T03:16:22;5.00;;;3.07;;
3433;SDS011;1730;41.932;25.548;2022-10-12T03:18:48;4.67;;;2.90;;
3433;SDS011;1730;41.932;25.548;2022-10-12T03:21:14;8.23;;;3.00;;
3433;SDS011;1730;41.932;25.548;2022-10-12T03:23:43;5.20;;;2.90;;
3433;SDS011;1730;41.932;25.548;2022-10-12T03:26:10;5.60;;;2.80;;
3433;SDS011;1730;41.932;25.548;2022-10-12T03:28:36;6.03;;;2.80;;
3433;SDS011;1730;41.932;25.548;2022-10-12T03:31:03;4.23;;;3.13;;
3433;SDS011;1730;41.932;25.548;2022-10-12T03:33:29;11.97;;;2.67;;
3433;SDS011;1730;41.932;25.548;2022-10-12T03:35:55;8.80;;;3.30;;
3433;SDS011;1730;41.932;25.548;2022-10-12T03:38:23;5.20;;;3.47;;
3433;SDS011;1730;41.932;25.548;2022-10-12T03:40:54;5.00;;;3.20;;
3433;SDS011;1730;41.932;25.548;2022-10-12T03:43:22;3.50;;;3.20;;
3433;SDS011;1730;41.932;25.548;2022-10-12T03:45:51;11.13;;;3.40;;
3433;SDS011;1730;41.932;25.548;2022-10-12T03:48:19;6.10;;;2.63;;
3433;SDS011;1730;41.932;25.548;2022-10-12T03:50:48;4.10;;;3.70;;
3433;SDS011;1730;41.932;25.548;2022-10-12T03:53:15;3.73;;;3.43;;
3433;SDS011;1730;41.932;25.548;2022-10-12T03:55:41;8.47;;;4.07;;
3433;SDS011;1730;41.932;25.548;2022-10-12T03:58:07;3.93;;;3.40;;
3433;SDS011;1730;41.932;25.548;2022-10-12T04:00:33;6.30;;;3.80;;
3433;SDS011;1730;41.932;25.548;2022-10-12T04:03:00;6.90;;;3.60;;
3433;SDS011;1730;41.932;25.548;2022-10-12T04:05:30;8.37;;;3.57;;
3433;SDS011;1730;41.932;25.548;2022-10-12T04:07:56;6.33;;;3.67;;
3433;SDS011;1730;41.932;25.548;2022-10-12T04:10:22;6.80;;;3.90;;
3433;SDS011;1730;41.932;25.548;2022-10-12T04:12:48;5.30;;;3.53;;
3433;SDS011;1730;41.932;25.548;2022-10-12T04:15:14;4.73;;;3.97;;
3433;SDS011;1730;41.932;25.548;2022-10-12T04:17:42;7.33;;;4.20;;
3433;SDS011;1730;41.932;25.548;2022-10-12T04:20:08;8.30;;;3.40;;
3433;SDS011;1730;41.932;25.548;2022-10-12T04:22:35;6.27;;;3.67;;
3433;SDS011;1730;41.932;25.548;2022-10-12T04:25:02;6.07;;;3.97;;
3433;SDS011;1730;41.932;25.548;2022-10-12T04:27:31;4.13;;;3.77;;
3433;SDS011;1730;41.932;25.548;2022-10-12T04:30:00;4.63;;;4.13;;
3433;SDS011;1730;41.932;25.548;2022-10-12T04:32:26;7.40;;;3.70;;
3433;SDS011;1730;41.932;25.548;2022-10-12T04:34:54;4.70;;;4.30;;
3433;SDS011;1730;41.932;25.548;2022-10-12T04:37:20;5.20;;;4.70;;
3433;SDS011;1730;41.932;25.548;2022-10-12T04:39:50;16.77;;;4.40;;
3433;SDS011;1730;41.932;25.548;2022-10-12T04:42:25;7.00;;;5.07;;
3433;SDS011;1730;41.932;25.548;2022-10-12T04:44:51;5.87;;;4.57;;
3433;SDS011;1730;41.932;25.548;2022-10-12T04:47:19;5.43;;;4.90;;
3433;SDS011;1730;41.932;25.548;2022-10-12T04:49:55;8.57;;;4.23;;
3433;SDS011;1730;41.932;25.548;2022-10-12T04:52:36;8.30;;;4.40;;
3433;SDS011;1730;41.932;25.548;2022-10-12T04:55:07;5.23;;;4.73;;
3433;SDS011;1730;41.932;25.548;2022-10-12T04:57:35;12.70;;;4.80;;
3433;SDS011;1730;41.932;25.548;2022-10-12T05:00:02;5.53;;;4.40;;
3433;SDS011;1730;41.932;25.548;2022-10-12T05:02:29;6.40;;;4.77;;
3433;SDS011;1730;41.932;25.548;2022-10-12T05:05:09;6.50;;;4.83;;
3433;SDS011;1730;41.932;25.548;2022-10-12T05:07:39;6.50;;;5.03;;
3433;SDS011;1730;41.932;25.548;2022-10-12T05:10:15;6.50;;;4.40;;
3433;SDS011;1730;41.932;25.548;2022-10-12T05:13:54;6.93;;;4.30;;
3433;SDS011;1730;41.932;25.548;2022-10-12T05:16:35;5.53;;;4.60;;
3433;SDS011;1730;41.932;25.548;2022-10-12T05:19:26;6.23;;;4.50;;
3433;SDS011;1730;41.932;25.548;2022-10-12T05:21:56;19.87;;;4.90;;
3433;SDS011;1730;41.932;25.548;2022-10-12T05:24:43;15.13;;;5.50;;
3433;SDS011;1730;41.932;25.548;2022-10-12T05:35:29;15.17;;;4.83;;
3433;SDS011;1730;41.932;25.548;2022-10-12T05:37:56;5.03;;;3.93;;
3433;SDS011;1730;41.932;25.548;2022-10-12T05:43:11;14.73;;;3.93;;
3433;SDS011;1730;41.932;25.548;2022-10-12T05:45:39;10.90;;;4.40;;
3433;SDS011;1730;41.932;25.548;2022-10-12T05:48:07;4.83;;;3.30;;
3433;SDS011;1730;41.932;25.548;2022-10-12T05:50:41;6.10;;;3.87;;
3433;SDS011;1730;41.932;25.548;2022-10-12T05:53:09;7.83;;;3.63;;
3433;SDS011;1730;41.932;25.548;2022-10-12T05:55:38;6.87;;;3.57;;
3433;SDS011;1730;41.932;25.548;2022-10-12T05:58:05;4.63;;;4.27;;
3433;SDS011;1730;41.932;25.548;2022-10-12T06:00:30;15.50;;;3.43;;
3433;SDS011;1730;41.932;25.548;2022-10-12T06:02:58;9.10;;;4.40;;
3433;SDS011;1730;41.932;25.548;2022-10-12T06:05:23;9.00;;;4.33;;
3433;SDS011;1730;41.932;25.548;2022-10-12T06:08:11;4.47;;;4.07;;
3433;SDS011;1730;41.932;25.548;2022-10-12T06:10:44;11.03;;;4.30;;
3433;SDS011;1730;41.932;25.548;2022-10-12T06:24:25;16.37;;;3.30;;
3433;SDS011;1730;41.932;25.548;2022-10-12T06:37:12;5.93;;;3.53;;
3433;SDS011;1730;41.932;25.548;2022-10-12T06:39:38;8.87;;;4.20;;
3433;SDS011;1730;41.932;25.548;2022-10-12T08:36:14;5.20;;;1.87;;
3433;SDS011;1730;41.932;25.548;2022-10-12T08:41:49;7.50;;;2.40;;
3433;SDS011;1730;41.932;25.548;2022-10-12T08:47:19;6.90;;;2.13;;
3433;SDS011;1730;41.932;25.548;2022-10-12T08:49:49;5.50;;;2.20;;
3433;SDS011;1730;41.932;25.548;2022-10-12T08:52:32;4.00;;;2.10;;
3433;SDS011;1730;41.932;25.548;2022-10-12T08:56:01;2.60;;;2.00;;
3433;SDS011;1730;41.932;25.548;2022-10-12T08:58:12;2.57;;;2.37;;
3433;SDS011;1730;41.932;25.548;2022-10-12T09:01:01;3.07;;;1.90;;
3433;SDS011;1730;41.932;25.548;2022-10-12T09:08:13;5.27;;;1.73;;
3433;SDS011;1730;41.932;25.548;2022-10-12T09:10:46;3.07;;;2.03;;
3433;SDS011;1730;41.932;25.548;2022-10-12T09:16:22;11.80;;;2.03;;
3433;SDS011;1730;41.932;25.548;2022-10-12T09:18:52;4.70;;;2.13;;
3433;SDS011;1730;41.932;25.548;2022-10-12T09:21:28;4.90;;;2.00;;
3433;SDS011;1730;41.932;25.548;2022-10-12T09:24:07;4.10;;;2.33;;
3433;SDS011;1730;41.932;25.548;2022-10-12T09:26:43;3.07;;;1.87;;
3433;SDS011;1730;41.932;25.548;2022-10-12T09:29:34;2.10;;;1.90;;
3433;SDS011;1730;41.932;25.548;2022-10-12T09:43:17;6.13;;;2.00;;
3433;SDS011;1730;41.932;25.548;2022-10-12T09:45:42;4.43;;;1.93;;
3433;SDS011;1730;41.932;25.548;2022-10-12T09:51:08;2.23;;;1.93;;
3433;SDS011;1730;41.932;25.548;2022-10-12T09:56:05;2.30;;;1.70;;
3433;SDS011;1730;41.932;25.548;2022-10-12T09:58:40;5.33;;;2.20;;
3433;SDS011;1730;41.932;25.548;2022-10-12T10:03:43;2.80;;;1.80;;
3433;SDS011;1730;41.932;25.548;2022-10-12T10:06:10;2.20;;;1.80;;
3433;SDS011;1730;41.932;25.548;2022-10-12T10:08:42;2.13;;;1.93;;
3433;SDS011;1730;41.932;25.548;2022-10-12T10:11:13;2.13;;;1.60;;
3433;SDS011;1730;41.932;25.548;2022-10-12T10:13:47;1.87;;;1.77;;
3433;SDS011;1730;41.932;25.548;2022-10-12T10:16:16;3.50;;;1.93;;
3433;SDS011;1730;41.932;25.548;2022-10-12T10:18:45;1.83;;;1.73;;
3433;SDS011;1730;41.932;25.548;2022-10-12T10:21:14;7.10;;;3.03;;
3433;SDS011;1730;41.932;25.548;2022-10-12T10:23:53;2.30;;;1.77;;
3433;SDS011;1730;41.932;25.548;2022-10-12T10:26:27;3.50;;;1.60;;
3433;SDS011;1730;41.932;25.548;2022-10-12T10:28:57;5.90;;;1.47;;
3433;SDS011;1730;41.932;25.548;2022-10-12T10:31:39;3.73;;;1.87;;
3433;SDS011;1730;41.932;25.548;2022-10-12T10:36:43;2.73;;;1.40;;
3433;SDS011;1730;41.932;25.548;2022-10-12T10:39:18;7.77;;;2.17;;
3433;SDS011;1730;41.932;25.548;2022-10-12T10:41:47;7.60;;;1.90;;
3433;SDS011;1730;41.932;25.548;2022-10-12T10:44:27;1.70;;;1.60;;
3433;SDS011;1730;41.932;25.548;2022-10-12T10:46:57;2.20;;;1.77;;
3433;SDS011;1730;41.932;25.548;2022-10-12T10:52:01;2.53;;;1.60;;
3433;SDS011;1730;41.932;25.548;2022-10-12T10:54:30;6.93;;;1.80;;
3433;SDS011;1730;41.932;25.548;2022-10-12T10:57:05;7.13;;;1.50;;
3433;SDS011;1730;41.932;25.548;2022-10-12T11:02:27;5.17;;;1.73;;
3433;SDS011;1730;41.932;25.548;2022-10-12T11:05:09;14.50;;;1.90;;
3433;SDS011;1730;41.932;25.548;2022-10-12T11:13:31;1.60;;;1.33;;
3433;SDS011;1730;41.932;25.548;2022-10-12T11:16:08;2.20;;;1.67;;
3433;SDS011;1730;41.932;25.548;2022-10-12T11:24:16;3.47;;;1.50;;
3433;SDS011;1730;41.932;25.548;2022-10-12T11:26:48;5.93;;;1.80;;
3433;SDS011;1730;41.932;25.548;2022-10-12T11:29:18;8.70;;;1.40;;
3433;SDS011;1730;41.932;25.548;2022-10-12T11:34:44;2.50;;;1.63;;
3433;SDS011;1730;41.932;25.548;2022-10-12T11:37:19;6.03;;;2.10;;
3433;SDS011;1730;41.932;25.548;2022-10-12T11:39:48;5.70;;;1.70;;
3433;SDS011;1730;41.932;25.548;2022-10-12T11:42:19;3.90;;;1.50;;
3433;SDS011;1730;41.932;25.548;2022-10-12T11:44:53;1.63;;;1.27;;
3433;SDS011;1730;41.932;25.548;2022-10-12T11:49:55;2.57;;;2.00;;
3433;SDS011;1730;41.932;25.548;2022-10-12T11:52:42;3.20;;;1.70;;
3433;SDS011;1730;41.932;25.548;2022-10-12T11:55:24;1.70;;;1.57;;
3433;SDS011;1730;41.932;25.548;2022-10-12T11:57:59;11.67;;;1.70;;
3433;SDS011;1730;41.932;25.548;2022-10-12T12:00:33;3.27;;;1.90;;
3433;SDS011;1730;41.932;25.548;2022-10-12T12:03:18;1.80;;;1.53;;
3433;SDS011;1730;41.932;25.548;2022-10-12T12:05:52;1.83;;;1.23;;
3433;SDS011;1730;41.932;25.548;2022-10-12T12:11:37;2.53;;;1.90;;
3433;SDS011;1730;41.932;25.548;2022-10-12T12:16:50;1.70;;;1.50;;
3433;SDS011;1730;41.932;25.548;2022-10-12T12:19:39;7.70;;;1.97;;
3433;SDS011;1730;41.932;25.548;2022-10-12T12:24:37;6.73;;;1.90;;
3433;SDS011;1730;41.932;25.548;2022-10-12T12:29:57;3.17;;;1.70;;
3433;SDS011;1730;41.932;25.548;2022-10-12T12:32:25;6.90;;;1.97;;
3433;SDS011;1730;41.932;25.548;2022-10-12T12:35:04;5.37;;;2.07;;
3433;SDS011;1730;41.932;25.548;2022-10-12T12:37:30;2.23;;;2.03;;
3433;SDS011;1730;41.932;25.548;2022-10-12T12:39:58;6.80;;;1.70;;
3433;SDS011;1730;41.932;25.548;2022-10-12T12:42:25;5.40;;;1.70;;
3433;SDS011;1730;41.932;25.548;2022-10-12T12:44:56;1.93;;;1.70;;
3433;SDS011;1730;41.932;25.548;2022-10-12T12:47:37;5.27;;;1.80;;
3433;SDS011;1730;41.932;25.548;2022-10-12T12:52:51;2.80;;;2.17;;
3433;SDS011;1730;41.932;25.548;2022-10-12T13:16:51;4.23;;;1.27;;
3433;SDS011;1730;41.932;25.548;2022-10-12T13:19:19;8.40;;;1.50;;
3433;SDS011;1730;41.932;25.548;2022-10-12T13:21:46;5.60;;;1.40;;
3433;SDS011;1730;41.932;25.548;2022-10-12T13:24:16;7.27;;;1.43;;
3433;SDS011;1730;41.932;25.548;2022-10-12T13:26:47;3.20;;;1.50;;
3433;SDS011;1730;41.932;25.548;2022-10-12T13:29:18;1.97;;;1.30;;
3433;SDS011;1730;41.932;25.548;2022-10-12T13:31:50;5.93;;;1.50;;
3433;SDS011;1730;41.932;25.548;2022-10-12T13:34:30;2.27;;;1.20;;
3433;SDS011;1730;41.932;25.548;2022-10-12T13:37:13;1.60;;;1.50;;
3433;SDS011;1730;41.932;25.548;2022-10-12T13:39:40;1.77;;;1.30;;
3433;SDS011;1730;41.932;25.548;2022-10-12T13:42:12;5.40;;;1.20;;
3433;SDS011;1730;41.932;25.548;2022-10-12T13:44:51;3.10;;;1.80;;
3433;SDS011;1730;41.932;25.548;2022-10-12T13:49:47;2.80;;;1.30;;
3433;SDS011;1730;41.932;25.548;2022-10-12T13:54:39;3.53;;;1.30;;
3433;SDS011;1730;41.932;25.548;2022-10-12T13:59:54;3.50;;;1.57;;
3433;SDS011;1730;41.932;25.548;2022-10-12T14:02:26;3.00;;;1.47;;
3433;SDS011;1730;41.932;25.548;2022-10-12T14:04:57;3.40;;;1.20;;
3433;SDS011;1730;41.932;25.548;2022-10-12T14:07:29;1.70;;;1.20;;
3433;SDS011;1730;41.932;25.548;2022-10-12T14:09:58;2.27;;;1.20;;
3433;SDS011;1730;41.932;25.548;2022-10-12T14:12:27;1.40;;;1.00;;
3433;SDS011;1730;41.932;25.548;2022-10-12T14:14:54;1.50;;;1.20;;
3433;SDS011;1730;41.932;25.548;2022-10-12T14:17:21;1.63;;;1.40;;
3433;SDS011;1730;41.932;25.548;2022-10-12T14:19:51;1.87;;;1.67;;
3433;SDS011;1730;41.932;25.548;2022-10-12T14:22:23;3.17;;;1.87;;
3433;SDS011;1730;41.932;25.548;2022-10-12T14:24:51;1.87;;;1.27;;
3433;SDS011;1730;41.932;25.548;2022-10-12T14:27:32;1.20;;;1.10;;
3433;SDS011;1730;41.932;25.548;2022-10-12T14:30:32;1.77;;;0.90;;
3433;SDS011;1730;41.932;25.548;2022-10-12T14:32:50;3.67;;;1.23;;
3433;SDS011;1730;41.932;25.548;2022-10-12T14:35:19;2.50;;;1.93;;
3433;SDS011;1730;41.932;25.548;2022-10-12T14:37:46;1.97;;;1.47;;
3433;SDS011;1730;41.932;25.548;2022-10-12T14:40:21;5.73;;;1.20;;
3433;SDS011;1730;41.932;25.548;2022-10-12T14:42:58;2.43;;;1.97;;
3433;SDS011;1730;41.932;25.548;2022-10-12T14:45:28;2.40;;;1.63;;
3433;SDS011;1730;41.932;25.548;2022-10-12T14:47:54;15.13;;;8.73;;
3433;SDS011;1730;41.932;25.548;2022-10-12T14:50:20;5.77;;;1.93;;
3433;SDS011;1730;41.932;25.548;2022-10-12T14:52:47;2.30;;;1.30;;
3433;SDS011;1730;41.932;25.548;2022-10-12T14:55:21;3.43;;;1.83;;
3433;SDS011;1730;41.932;25.548;2022-10-12T14:57:48;1.63;;;1.53;;
3433;SDS011;1730;41.932;25.548;2022-10-12T15:00:15;3.20;;;1.37;;
3433;SDS011;1730;41.932;25.548;2022-10-12T15:02:48;3.33;;;1.30;;
3433;SDS011;1730;41.932;25.548;2022-10-12T15:05:17;3.10;;;1.37;;
3433;SDS011;1730;41.932;25.548;2022-10-12T15:07:46;5.07;;;2.63;;
3433;SDS011;1730;41.932;25.548;2022-10-12T15:10:12;5.53;;;1.97;;
3433;SDS011;1730;41.932;25.548;2022-10-12T15:12:38;4.43;;;2.43;;
3433;SDS011;1730;41.932;25.548;2022-10-12T15:18:06;8.17;;;3.80;;
3433;SDS011;1730;41.932;25.548;2022-10-12T15:20:32;4.10;;;2.90;;
3433;SDS011;1730;41.932;25.548;2022-10-12T15:22:59;3.33;;;3.00;;
3433;SDS011;1730;41.932;25.548;2022-10-12T15:27:59;2.87;;;1.70;;
3433;SDS011;1730;41.932;25.548;2022-10-12T15:30:26;5.63;;;1.70;;
3433;SDS011;1730;41.932;25.548;2022-10-12T15:32:51;5.13;;;2.07;;
3433;SDS011;1730;41.932;25.548;2022-10-12T15:35:22;10.47;;;1.80;;
3433;SDS011;1730;41.932;25.548;2022-10-12T15:37:49;5.63;;;2.60;;
3433;SDS011;1730;41.932;25.548;2022-10-12T15:40:16;5.10;;;2.17;;
3433;SDS011;1730;41.932;25.548;2022-10-12T15:42:43;7.70;;;2.00;;
3433;SDS011;1730;41.932;25.548;2022-10-12T15:45:19;19.90;;;7.60;;
3433;SDS011;1730;41.932;25.548;2022-10-12T15:47:50;23.27;;;10.40;;
3433;SDS011;1730;41.932;25.548;2022-10-12T15:50:17;19.47;;;9.03;;
3433;SDS011;1730;41.932;25.548;2022-10-12T15:52:45;11.17;;;5.40;;
3433;SDS011;1730;41.932;25.548;2022-10-12T15:55:18;13.90;;;8.03;;
3433;SDS011;1730;41.932;25.548;2022-10-12T15:57:45;37.17;;;16.70;;
3433;SDS011;1730;41.932;25.548;2022-10-12T16:00:12;15.63;;;8.93;;
3433;SDS011;1730;41.932;25.548;2022-10-12T16:02:39;24.80;;;9.40;;
3433;SDS011;1730;41.932;25.548;2022-10-12T16:05:25;12.70;;;5.87;;
3433;SDS011;1730;41.932;25.548;2022-10-12T16:07:53;4.63;;;2.93;;
3433;SDS011;1730;41.932;25.548;2022-10-12T16:10:20;9.17;;;3.20;;
3433;SDS011;1730;41.932;25.548;2022-10-12T16:12:50;38.67;;;17.60;;
3433;SDS011;1730;41.932;25.548;2022-10-12T16:15:24;23.93;;;7.53;;
3433;SDS011;1730;41.932;25.548;2022-10-12T16:17:53;8.50;;;4.30;;
3433;SDS011;1730;41.932;25.548;2022-10-12T16:20:20;11.40;;;3.73;;
3433;SDS011;1730;41.932;25.548;2022-10-12T16:22:46;10.77;;;3.10;;
3433;SDS011;1730;41.932;25.548;2022-10-12T16:25:12;4.20;;;2.40;;
3433;SDS011;1730;41.932;25.548;2022-10-12T16:27:40;8.17;;;2.70;;
3433;SDS011;1730;41.932;25.548;2022-10-12T16:30:07;7.50;;;3.00;;
3433;SDS011;1730;41.932;25.548;2022-10-12T16:32:33;13.20;;;6.03;;
3433;SDS011;1730;41.932;25.548;2022-10-12T16:34:59;17.93;;;7.03;;
3433;SDS011;1730;41.932;25.548;2022-10-12T16:37:24;16.30;;;6.40;;
3433;SDS011;1730;41.932;25.548;2022-10-12T16:39:53;10.73;;;6.37;;
3433;SDS011;1730;41.932;25.548;2022-10-12T16:42:19;8.30;;;5.23;;
3433;SDS011;1730;41.932;25.548;2022-10-12T16:44:45;21.77;;;7.07;;
3433;SDS011;1730;41.932;25.548;2022-10-12T16:47:11;18.30;;;7.00;;
3433;SDS011;1730;41.932;25.548;2022-10-12T16:49:37;14.00;;;7.30;;
3433;SDS011;1730;41.932;25.548;2022-10-12T16:52:04;25.63;;;12.27;;
3433;SDS011;1730;41.932;25.548;2022-10-12T16:54:30;24.90;;;13.90;;
3433;SDS011;1730;41.932;25.548;2022-10-12T16:56:56;24.80;;;9.73;;
3433;SDS011;1730;41.932;25.548;2022-10-12T16:59:22;26.17;;;8.70;;
3433;SDS011;1730;41.932;25.548;2022-10-12T17:01:48;18.03;;;7.93;;
3433;SDS011;1730;41.932;25.548;2022-10-12T17:04:14;14.03;;;8.53;;
3433;SDS011;1730;41.932;25.548;2022-10-12T17:06:39;22.50;;;9.90;;
3433;SDS011;1730;41.932;25.548;2022-10-12T17:09:06;15.07;;;8.23;;
3433;SDS011;1730;41.932;25.548;2022-10-12T17:11:36;15.40;;;6.57;;
3433;SDS011;1730;41.932;25.548;2022-10-12T17:14:03;12.40;;;6.67;;
3433;SDS011;1730;41.932;25.548;2022-10-12T17:16:30;7.80;;;5.70;;
3433;SDS011;1730;41.932;25.548;2022-10-12T17:19:19;11.93;;;5.70;;
3433;SDS011;1730;41.932;25.548;2022-10-12T17:21:47;19.77;;;6.50;;
3433;SDS011;1730;41.932;25.548;2022-10-12T17:24:15;21.40;;;7.67;;
3433;SDS011;1730;41.932;25.548;2022-10-12T17:26:42;14.10;;;7.97;;
3433;SDS011;1730;41.932;25.548;2022-10-12T17:29:10;22.70;;;7.33;;
3433;SDS011;1730;41.932;25.548;2022-10-12T17:31:37;19.10;;;7.60;;
3433;SDS011;1730;41.932;25.548;2022-10-12T17:34:03;13.13;;;6.83;;
3433;SDS011;1730;41.932;25.548;2022-10-12T17:36:31;11.23;;;6.90;;
3433;SDS011;1730;41.932;25.548;2022-10-12T17:38:57;15.90;;;7.37;;
3433;SDS011;1730;41.932;25.548;2022-10-12T17:41:23;6.33;;;5.70;;
3433;SDS011;1730;41.932;25.548;2022-10-12T17:43:49;11.53;;;5.97;;
3433;SDS011;1730;41.932;25.548;2022-10-12T17:46:15;8.50;;;5.33;;
3433;SDS011;1730;41.932;25.548;2022-10-12T17:48:40;15.33;;;6.80;;
3433;SDS011;1730;41.932;25.548;2022-10-12T17:51:07;28.80;;;9.00;;
3433;SDS011;1730;41.932;25.548;2022-10-12T17:53:34;32.53;;;17.33;;
3433;SDS011;1730;41.932;25.548;2022-10-12T17:56:01;12.27;;;8.20;;
3433;SDS011;1730;41.932;25.548;2022-10-12T17:58:28;22.07;;;12.27;;
3433;SDS011;1730;41.932;25.548;2022-10-12T18:00:54;19.57;;;11.20;;
3433;SDS011;1730;41.932;25.548;2022-10-12T18:03:20;7.27;;;4.90;;
3433;SDS011;1730;41.932;25.548;2022-10-12T18:05:47;11.87;;;6.17;;
3433;SDS011;1730;41.932;25.548;2022-10-12T18:08:13;11.13;;;5.80;;
3433;SDS011;1730;41.932;25.548;2022-10-12T18:10:39;8.03;;;4.23;;
3433;SDS011;1730;41.932;25.548;2022-10-12T18:13:05;21.07;;;7.40;;
3433;SDS011;1730;41.932;25.548;2022-10-12T18:15:31;4.33;;;3.23;;
3433;SDS011;1730;41.932;25.548;2022-10-12T18:17:56;6.10;;;4.23;;
3433;SDS011;1730;41.932;25.548;2022-10-12T18:20:22;3.60;;;3.30;;
3433;SDS011;1730;41.932;25.548;2022-10-12T18:22:47;9.20;;;4.27;;
3433;SDS011;1730;41.932;25.548;2022-10-12T18:25:13;8.03;;;4.67;;
3433;SDS011;1730;41.932;25.548;2022-10-12T18:27:40;5.30;;;4.60;;
3433;SDS011;1730;41.932;25.548;2022-10-12T18:30:06;10.07;;;8.03;;
3433;SDS011;1730;41.932;25.548;2022-10-12T18:32:32;11.80;;;8.70;;
3433;SDS011;1730;41.932;25.548;2022-10-12T18:34:57;7.00;;;6.20;;
3433;SDS011;1730;41.932;25.548;2022-10-12T18:37:23;6.03;;;4.70;;
3433;SDS011;1730;41.932;25.548;2022-10-12T18:39:48;7.03;;;4.43;;
3433;SDS011;1730;41.932;25.548;2022-10-12T18:42:14;4.70;;;4.40;;
3433;SDS011;1730;41.932;25.548;2022-10-12T18:44:39;3.63;;;3.33;;
3433;SDS011;1730;41.932;25.548;2022-10-12T18:47:05;8.53;;;4.27;;
3433;SDS011;1730;41.932;25.548;2022-10-12T18:49:31;8.63;;;3.20;;
3433;SDS011;1730;41.932;25.548;2022-10-12T18:51:56;6.00;;;4.10;;
3433;SDS011;1730;41.932;25.548;2022-10-12T18:54:22;4.63;;;4.00;;
3433;SDS011;1730;41.932;25.548;2022-10-12T18:56:47;5.03;;;4.17;;
3433;SDS011;1730;41.932;25.548;2022-10-12T18:59:13;11.00;;;4.90;;
3433;SDS011;1730;41.932;25.548;2022-10-12T19:01:43;6.93;;;4.60;;
3433;SDS011;1730;41.932;25.548;2022-10-12T19:04:09;6.33;;;5.10;;
3433;SDS011;1730;41.932;25.548;2022-10-12T19:06:35;6.87;;;4.30;;
3433;SDS011;1730;41.932;25.548;2022-10-12T19:09:03;4.53;;;3.80;;
3433;SDS011;1730;41.932;25.548;2022-10-12T19:11:29;7.20;;;4.33;;
3433;SDS011;1730;41.932;25.548;2022-10-12T19:14:01;10.70;;;4.90;;
3433;SDS011;1730;41.932;25.548;2022-10-12T19:16:29;5.93;;;5.23;;
3433;SDS011;1730;41.932;25.548;2022-10-12T19:18:56;8.63;;;5.50;;
3433;SDS011;1730;41.932;25.548;2022-10-12T19:21:26;11.20;;;5.50;;
3433;SDS011;1730;41.932;25.548;2022-10-12T19:23:52;12.27;;;5.40;;
3433;SDS011;1730;41.932;25.548;2022-10-12T19:26:20;6.33;;;5.47;;
3433;SDS011;1730;41.932;25.548;2022-10-12T19:28:47;14.23;;;5.30;;
3433;SDS011;1730;41.932;25.548;2022-10-12T19:31:17;7.70;;;5.20;;
3433;SDS011;1730;41.932;25.548;2022-10-12T19:33:47;5.30;;;4.90;;
3433;SDS011;1730;41.932;25.548;2022-10-12T19:36:13;10.17;;;5.37;;
3433;SDS011;1730;41.932;25.548;2022-10-12T19:38:41;12.63;;;5.60;;
3433;SDS011;1730;41.932;25.548;2022-10-12T19:41:07;16.73;;;9.50;;
3433;SDS011;1730;41.932;25.548;2022-10-12T19:43:34;16.00;;;8.97;;
3433;SDS011;1730;41.932;25.548;2022-10-12T19:46:00;15.67;;;8.10;;
3433;SDS011;1730;41.932;25.548;2022-10-12T19:48:31;21.70;;;7.73;;